Overview Statistics Trail Chart Weather Telemetry Raw packets
 

This is the latest recevied weather packets stored in our database for station/object K7DC. If no packets are shown the sender has not sent any weather packets the latest 10 day(s).

<< 27 28 29 30 31 32 33 >>
Time Temp. Humidity Pressure Rain* Wind** Luminosity Snow
1788450593 26.67° C 63% 1017.4 hPa 0 mm - 137 W/m² -
1788450288 26.67° C 65% 1017.6 hPa 0 mm - 133 W/m² -
1788449984 26.67° C 66% 1017.3 hPa 0 mm - 137 W/m² -
1788449679 26.11° C 65% 1017.3 hPa 0 mm - 139 W/m² -
1788449375 26.67° C 64% 1017.3 hPa 0 mm - 141 W/m² -
1788449071 27.22° C 65% 1017.4 hPa 0 mm - 147 W/m² -
1788448767 27.22° C 62% 1017.4 hPa 0 mm - 153 W/m² -
1788448461 27.22° C 62% 1017.6 hPa 0 mm - 166 W/m² -
1788448156 27.78° C 62% 1017.3 hPa 0 mm - 188 W/m² -
1788447851 27.22° C 63% 1017.4 hPa 0 mm - 247 W/m² -
1788447545 26.67° C 63% 1017.4 hPa 0 mm - 229 W/m² -
1788447241 26.67° C 63% 1017.2 hPa 0 mm - 146 W/m² -
1788446940 27.78° C 59% 1017.6 hPa 0 mm - 112 W/m² -
1788446635 28.33° C 60% 1017.7 hPa 0 mm - 126 W/m² -
1788446330 27.78° C 61% 1017.6 hPa 0 mm - 189 W/m² -
1788446028 26.67° C 64% 1017.2 hPa 0 mm - 245 W/m² -
1788445728 25.56° C 67% 1017.3 hPa 0 mm - 188 W/m² -
1788445423 25° C 70% 1017.3 hPa 0 mm - 134 W/m² -
1788445119 25° C 72% 1017.6 hPa 0 mm - 116 W/m² -
1788444815 24.44° C 73% 1017.2 hPa 0 mm - 84 W/m² -
1788444510 24.44° C 74% 1017.2 hPa 0 mm - 60 W/m² -
1788444205 24.44° C 73% 1017.1 hPa 0 mm - 49 W/m² -
1788443901 24.44° C 73% 1017.1 hPa 0 mm - 42 W/m² -
1788443596 24.44° C 74% 1017.1 hPa 0 mm - 39 W/m² -
1788443295 24.44° C 72% 1017 hPa 0 mm - 35 W/m² -

* Rain latest hour (hover to see other rain measurements)
** Current wind speed in m/s (hover to see current wind gust speed)